Time;durP1;ratioP1;P1;durP2;ratioP2;P2;SDS_P1;SDS_P2;PMS_P1;PMS_P2;Temp;Humidity;BMP_temperature;BMP_pressure;BME280_temperature;BME280_humidity;BME280_pressure;Samples;Min_cycle;Max_cycle;Signal;HPM_P1;HPM_P2
2022/11/10 00:00:16;;;;;;;4.00;0.77;;;10.00;99.90;;;;;;5093801;28;20877;-72
2022/11/10 00:02:42;;;;;;;1.53;0.80;;;10.00;99.90;;;;;;5093484;28;20267;-72
2022/11/10 00:05:09;;;;;;;2.70;1.20;;;10.00;99.90;;;;;;5094039;28;20506;-71
2022/11/10 00:07:35;;;;;;;1.67;0.80;;;10.00;99.90;;;;;;5093772;28;20184;-71
2022/11/10 00:10:00;;;;;;;1.40;0.80;;;10.00;99.90;;;;;;5093242;28;20452;-71
2022/11/10 00:12:26;;;;;;;1.70;0.80;;;10.00;99.90;;;;;;5093025;28;20211;-72
2022/11/10 00:17:36;;;;;;;1.50;0.63;;;9.90;99.90;;;;;;5093449;28;20207;-71
2022/11/10 00:20:02;;;;;;;1.70;0.83;;;9.80;99.90;;;;;;5086868;28;20427;-71
2022/11/10 00:22:28;;;;;;;1.50;0.60;;;9.80;99.90;;;;;;5089777;28;20456;-71
2022/11/10 00:24:53;;;;;;;3.30;0.90;;;9.80;99.90;;;;;;5093223;28;20956;-71
2022/11/10 00:27:19;;;;;;;1.67;0.73;;;9.70;99.90;;;;;;5093455;28;20184;-71
2022/11/10 00:29:45;;;;;;;2.90;0.97;;;9.70;99.90;;;;;;5092946;28;20184;-71
2022/11/10 00:32:10;;;;;;;1.57;0.80;;;9.60;99.90;;;;;;5093121;28;20220;-71
2022/11/10 00:34:36;;;;;;;2.17;0.90;;;9.60;99.90;;;;;;5093229;28;20242;-71
2022/11/10 00:37:02;;;;;;;2.03;0.90;;;9.50;99.90;;;;;;5084413;28;20269;-72
2022/11/10 00:39:28;;;;;;;1.30;0.70;;;9.50;99.90;;;;;;5093167;28;20183;-71
2022/11/10 00:41:54;;;;;;;2.17;1.20;;;9.50;99.90;;;;;;5093076;28;20418;-71
2022/11/10 00:44:19;;;;;;;2.70;0.97;;;9.50;99.90;;;;;;5093445;28;20211;-71
2022/11/10 00:46:45;;;;;;;2.87;1.00;;;9.50;99.90;;;;;;5094455;28;20427;-71
2022/11/10 00:49:10;;;;;;;1.33;0.70;;;9.50;99.90;;;;;;5094478;28;20267;-70
2022/11/10 00:51:36;;;;;;;3.20;1.23;;;9.40;99.90;;;;;;5094496;28;20176;-71
2022/11/10 00:54:02;;;;;;;1.70;0.70;;;9.40;99.90;;;;;;5086499;28;20648;-71
2022/11/10 00:56:28;;;;;;;1.40;0.83;;;9.30;99.90;;;;;;5096152;28;20271;-71
2022/11/10 00:58:54;;;;;;;2.30;0.93;;;9.30;99.90;;;;;;5101538;28;20423;-71
2022/11/10 01:01:23;;;;;;;1.77;1.20;;;9.20;99.90;;;;;;5102287;28;20259;-70
2022/11/10 01:03:49;;;;;;;2.80;1.17;;;9.20;99.90;;;;;;5100888;28;20178;-71
2022/11/10 01:06:16;;;;;;;3.00;1.60;;;9.10;99.90;;;;;;5102356;28;20501;-71
2022/11/10 01:08:42;;;;;;;2.03;1.00;;;9.10;99.90;;;;;;5101212;28;20454;-70
2022/11/10 01:11:13;;;;;;;1.50;0.77;;;9.10;99.90;;;;;;5082067;28;20478;-71
2022/11/10 01:13:39;;;;;;;1.80;0.90;;;9.10;99.90;;;;;;5093307;28;20652;-71
2022/11/10 01:16:12;;;;;;;4.43;1.60;;;9.00;99.90;;;;;;5091980;28;20460;-71
2022/11/10 01:18:39;;;;;;;3.33;1.00;;;9.00;99.90;;;;;;5090406;28;20711;-71
2022/11/10 01:21:05;;;;;;;1.80;0.83;;;8.90;99.90;;;;;;5091040;28;20410;-71
2022/11/10 01:23:30;;;;;;;3.63;1.30;;;8.90;99.90;;;;;;5091338;28;21088;-71
2022/11/10 01:26:01;;;;;;;2.43;1.03;;;8.80;99.90;;;;;;5091317;28;20185;-71
2022/11/10 01:28:27;;;;;;;2.00;0.90;;;8.80;99.90;;;;;;5091794;28;20176;-71
2022/11/10 01:31:00;;;;;;;2.87;1.27;;;8.90;99.90;;;;;;5092455;28;20434;-71
2022/11/10 01:33:26;;;;;;;1.80;1.20;;;8.90;99.90;;;;;;5091914;28;20426;-71
2022/11/10 01:35:52;;;;;;;1.93;0.90;;;8.80;99.90;;;;;;5091717;28;20850;-71
2022/11/10 01:38:17;;;;;;;2.07;1.20;;;8.80;99.90;;;;;;5092191;28;20212;-71
2022/11/10 01:40:44;;;;;;;1.73;0.90;;;8.80;99.90;;;;;;5091327;28;20749;-71
2022/11/10 01:43:11;;;;;;;1.97;1.00;;;8.80;99.90;;;;;;5090886;28;20199;-71
2022/11/10 01:45:49;;;;;;;3.10;1.37;;;8.70;99.90;;;;;;5092198;28;20418;-71
2022/11/10 01:48:27;;;;;;;1.40;0.73;;;8.60;99.90;;;;;;5073588;28;20418;-71
2022/11/10 01:50:54;;;;;;;2.17;1.17;;;8.60;99.90;;;;;;5092011;28;20785;-71
2022/11/10 01:53:25;;;;;;;6.97;1.17;;;8.50;99.90;;;;;;5088537;28;20498;-71
2022/11/10 01:55:53;;;;;;;2.23;1.23;;;8.40;99.90;;;;;;5086999;28;20806;-71
2022/11/10 01:58:23;;;;;;;3.80;1.77;;;8.40;99.90;;;;;;5091085;28;20414;-71
2022/11/10 02:00:50;;;;;;;1.90;1.13;;;8.40;99.90;;;;;;5091410;28;20421;-71
2022/11/10 02:03:39;;;;;;;2.53;1.20;;;8.40;99.90;;;;;;5091382;28;20430;-71
2022/11/10 02:06:06;;;;;;;8.97;1.60;;;8.50;99.90;;;;;;5091902;28;20471;-71
2022/11/10 02:08:33;;;;;;;4.30;1.43;;;8.60;99.90;;;;;;5091858;28;20511;-71
2022/11/10 02:10:58;;;;;;;1.70;0.90;;;8.60;99.90;;;;;;5091340;28;20464;-71
2022/11/10 02:13:24;;;;;;;4.70;1.57;;;8.60;99.90;;;;;;5090698;28;20411;-71
2022/11/10 02:15:51;;;;;;;1.90;0.90;;;8.50;99.90;;;;;;5083331;28;20235;-71
2022/11/10 02:18:17;;;;;;;2.33;1.03;;;8.50;99.90;;;;;;5091551;28;20521;-71
2022/11/10 02:20:44;;;;;;;1.60;0.87;;;8.40;99.90;;;;;;5082210;28;20979;-71
2022/11/10 02:23:33;;;;;;;1.93;0.90;;;8.30;99.90;;;;;;5091268;28;20176;-71
2022/11/10 02:26:00;;;;;;;2.90;1.00;;;8.30;99.90;;;;;;5091244;28;20539;-71
2022/11/10 02:28:26;;;;;;;2.67;1.60;;;8.20;99.90;;;;;;5090948;28;20423;-71
2022/11/10 02:30:52;;;;;;;2.07;1.00;;;8.20;99.90;;;;;;5091442;28;20907;-71
2022/11/10 02:33:18;;;;;;;2.80;0.80;;;8.20;99.90;;;;;;5090728;28;20450;-72
2022/11/10 02:35:45;;;;;;;5.07;1.10;;;8.10;99.90;;;;;;5090365;28;20414;-71
2022/11/10 02:38:12;;;;;;;4.70;1.00;;;8.00;99.90;;;;;;5091012;28;20300;-71
2022/11/10 02:40:37;;;;;;;1.60;0.80;;;8.00;99.90;;;;;;5091234;28;20501;-71
2022/11/10 02:43:11;;;;;;;1.80;0.80;;;7.90;99.90;;;;;;5090249;28;20556;-71
2022/11/10 02:45:45;;;;;;;3.70;1.27;;;7.80;99.90;;;;;;5078883;28;20180;-71
2022/11/10 02:48:13;;;;;;;1.40;0.70;;;7.80;99.90;;;;;;5072982;28;20413;-71
2022/11/10 02:50:39;;;;;;;2.13;0.97;;;7.70;99.90;;;;;;5091641;28;20414;-71
2022/11/10 02:53:05;;;;;;;1.70;0.80;;;7.70;99.90;;;;;;5093209;28;20975;-71
2022/11/10 02:55:31;;;;;;;3.50;1.10;;;7.70;99.90;;;;;;5095007;28;20226;-71
2022/11/10 02:57:57;;;;;;;1.40;0.80;;;7.70;99.90;;;;;;5095152;28;20422;-71
2022/11/10 03:00:23;;;;;;;3.83;1.40;;;7.60;99.90;;;;;;5094815;28;20196;-70
2022/11/10 03:02:54;;;;;;;1.30;0.70;;;7.60;99.90;;;;;;5094754;28;20948;-70
2022/11/10 03:05:19;;;;;;;2.87;0.80;;;7.50;99.90;;;;;;5093837;28;20407;-71
2022/11/10 03:07:50;;;;;;;3.23;1.13;;;7.50;99.90;;;;;;5095438;28;20874;-71
2022/11/10 03:10:16;;;;;;;1.50;0.87;;;7.40;99.90;;;;;;5094885;28;20180;-71
2022/11/10 03:12:41;;;;;;;2.37;1.10;;;7.40;99.90;;;;;;5089142;28;20429;-71
2022/11/10 03:15:07;;;;;;;2.37;0.90;;;7.30;99.90;;;;;;5086284;28;20195;-71
2022/11/10 03:17:33;;;;;;;1.63;0.90;;;7.30;99.90;;;;;;5094825;28;20659;-71
2022/11/10 03:19:58;;;;;;;2.40;1.10;;;7.20;99.90;;;;;;5088621;28;20495;-71
2022/11/10 03:22:24;;;;;;;2.90;1.23;;;7.20;99.90;;;;;;5090442;28;20177;-71
2022/11/10 03:24:50;;;;;;;1.47;0.73;;;7.20;99.90;;;;;;5093889;28;20207;-71
2022/11/10 03:27:15;;;;;;;2.17;1.27;;;7.10;99.90;;;;;;5090860;28;20188;-71
2022/11/10 03:29:41;;;;;;;1.40;0.77;;;7.10;99.90;;;;;;5093736;28;20188;-71
2022/11/10 03:32:06;;;;;;;1.53;0.90;;;7.00;99.90;;;;;;5094069;28;20262;-71
2022/11/10 03:34:32;;;;;;;2.20;0.93;;;7.00;99.90;;;;;;5094334;28;20192;-71
2022/11/10 03:36:57;;;;;;;1.77;1.03;;;6.90;99.90;;;;;;5093508;28;20545;-71
2022/11/10 03:39:23;;;;;;;1.97;1.07;;;6.90;99.90;;;;;;5093867;28;20183;-71
2022/11/10 03:41:49;;;;;;;2.10;1.03;;;6.90;99.90;;;;;;5093687;28;20251;-71
2022/11/10 03:44:14;;;;;;;2.23;1.30;;;6.80;99.90;;;;;;5093917;28;20184;-71
2022/11/10 03:46:40;;;;;;;2.30;0.97;;;6.80;99.90;;;;;;5094371;28;20617;-71
2022/11/10 03:49:05;;;;;;;3.00;1.00;;;6.70;99.90;;;;;;5094341;28;20242;-71
2022/11/10 03:51:31;;;;;;;2.27;1.20;;;6.80;99.90;;;;;;5075398;28;20184;-71
2022/11/10 03:53:56;;;;;;;1.60;0.93;;;6.70;99.90;;;;;;5086101;28;20185;-71
2022/11/10 03:56:22;;;;;;;2.90;1.20;;;6.60;99.90;;;;;;5093194;28;20544;-71
2022/11/10 03:58:47;;;;;;;12.90;2.30;;;6.50;99.90;;;;;;5093748;28;20582;-71
2022/11/10 04:01:13;;;;;;;1.67;1.00;;;6.50;99.90;;;;;;5093668;28;20255;-71
2022/11/10 04:03:38;;;;;;;7.00;1.20;;;6.40;99.90;;;;;;5092820;28;20184;-71
2022/11/10 04:09:00;;;;;;;1.60;0.63;;;6.30;99.90;;;;;;5093735;28;20195;-71
2022/11/10 04:17:00;;;;;;;1.93;1.00;;;6.20;99.90;;;;;;5096218;28;20457;-71
2022/11/10 04:19:26;;;;;;;2.30;1.23;;;6.10;99.90;;;;;;5094015;28;20536;-71
2022/11/10 04:21:52;;;;;;;1.80;0.97;;;6.10;99.90;;;;;;5089986;28;20442;-71
2022/11/10 04:24:17;;;;;;;1.60;0.90;;;6.10;99.90;;;;;;5103456;28;20180;-71
2022/11/10 04:26:44;;;;;;;1.60;0.93;;;6.10;99.90;;;;;;5085253;28;20184;-72
2022/11/10 04:29:11;;;;;;;1.70;1.00;;;6.00;99.90;;;;;;5095761;28;20180;-71
2022/11/10 04:31:39;;;;;;;1.83;1.20;;;6.00;99.90;;;;;;5098071;28;20464;-69
2022/11/10 04:34:06;;;;;;;2.00;1.20;;;6.00;99.90;;;;;;5094830;28;20438;-71
2022/11/10 04:36:35;;;;;;;1.87;1.10;;;6.00;99.90;;;;;;5093650;28;20458;-71
2022/11/10 04:39:01;;;;;;;1.87;1.30;;;5.90;99.90;;;;;;5093901;28;20450;-71
2022/11/10 04:41:31;;;;;;;2.63;1.17;;;5.80;99.90;;;;;;5080161;28;20443;-69
2022/11/10 04:43:58;;;;;;;3.50;1.00;;;5.80;99.90;;;;;;5087923;28;20226;-72
2022/11/10 04:46:25;;;;;;;1.50;0.77;;;5.80;99.90;;;;;;5086703;28;20421;-71
2022/11/10 04:48:52;;;;;;;3.80;1.10;;;5.70;99.90;;;;;;5092950;28;20962;-71
2022/11/10 04:51:19;;;;;;;2.90;1.00;;;5.70;99.90;;;;;;5092994;28;20418;-71
2022/11/10 04:53:44;;;;;;;1.60;0.83;;;5.70;99.90;;;;;;5086294;28;20507;-72
2022/11/10 04:56:21;;;;;;;2.70;1.40;;;5.70;99.90;;;;;;5090335;28;21014;-72
2022/11/10 04:58:47;;;;;;;1.60;0.80;;;5.60;99.90;;;;;;5092649;28;20254;-72
2022/11/10 05:01:16;;;;;;;6.63;1.03;;;5.60;99.90;;;;;;5092872;28;20443;-73
2022/11/10 05:03:42;;;;;;;1.93;0.80;;;5.50;99.90;;;;;;5092451;28;20267;-72
2022/11/10 05:06:08;;;;;;;9.77;0.83;;;5.50;99.90;;;;;;5092827;28;20424;-71
2022/11/10 05:08:35;;;;;;;1.90;0.60;;;5.50;99.90;;;;;;5092818;28;20750;-71
2022/11/10 05:11:01;;;;;;;1.70;0.93;;;5.50;99.90;;;;;;5092190;28;20426;-72
2022/11/10 05:13:26;;;;;;;1.50;0.70;;;5.50;99.90;;;;;;5084654;28;20445;-71
2022/11/10 05:15:52;;;;;;;12.50;1.37;;;5.40;99.90;;;;;;5082803;28;20407;-72
2022/11/10 05:18:18;;;;;;;3.60;2.03;;;5.40;99.90;;;;;;5092252;28;20185;-72
2022/11/10 05:20:43;;;;;;;4.43;2.53;;;5.40;99.90;;;;;;5084205;28;20173;-71
2022/11/10 05:25:53;;;;;;;12.03;5.17;;;5.30;99.90;;;;;;5092532;28;20211;-72
2022/11/10 05:28:19;;;;;;;14.57;4.80;;;5.30;99.90;;;;;;5092729;28;21085;-73
2022/11/10 05:30:45;;;;;;;8.30;4.23;;;5.30;99.90;;;;;;5092996;28;20214;-71
2022/11/10 05:33:10;;;;;;;2.80;1.50;;;5.20;99.90;;;;;;5083271;28;20193;-70
2022/11/10 05:35:36;;;;;;;3.20;1.57;;;5.10;99.90;;;;;;5084403;28;20180;-70
2022/11/10 05:38:04;;;;;;;3.17;1.70;;;5.00;99.90;;;;;;5092255;28;20418;-70
2022/11/10 05:40:30;;;;;;;3.47;2.00;;;5.00;99.90;;;;;;5091728;28;20427;-70
2022/11/10 05:42:56;;;;;;;2.30;1.40;;;5.00;99.90;;;;;;5091684;28;20432;-70
2022/11/10 05:45:24;;;;;;;2.50;1.27;;;5.00;99.90;;;;;;5091565;28;20876;-71
2022/11/10 05:47:50;;;;;;;2.43;1.63;;;5.00;99.90;;;;;;5091928;28;20558;-70
2022/11/10 05:50:17;;;;;;;3.00;2.10;;;5.00;99.90;;;;;;5092004;28;20887;-70
2022/11/10 05:52:48;;;;;;;2.33;1.60;;;5.00;99.90;;;;;;5091378;28;20542;-70
2022/11/10 05:55:15;;;;;;;3.17;1.90;;;5.10;99.90;;;;;;5086339;28;20484;-70
2022/11/10 05:57:42;;;;;;;4.83;2.27;;;5.10;99.90;;;;;;5092074;28;21028;-70
2022/11/10 06:00:09;;;;;;;3.47;1.57;;;5.10;99.90;;;;;;5078396;28;20415;-70
2022/11/10 06:02:35;;;;;;;5.20;1.90;;;5.10;99.90;;;;;;5091082;28;20414;-71
2022/11/10 06:05:00;;;;;;;2.90;2.10;;;5.00;99.90;;;;;;5091781;28;20806;-71
2022/11/10 06:07:26;;;;;;;4.00;2.40;;;5.10;99.90;;;;;;5092000;28;20263;-71
2022/11/10 06:09:51;;;;;;;3.87;2.33;;;5.10;99.90;;;;;;5091496;28;20192;-71
2022/11/10 06:12:17;;;;;;;4.37;2.43;;;5.00;99.90;;;;;;5091716;28;20184;-71
2022/11/10 06:14:43;;;;;;;4.20;2.10;;;5.00;99.90;;;;;;5091845;28;20617;-71
2022/11/10 06:17:08;;;;;;;4.23;2.27;;;4.90;99.90;;;;;;5091761;28;20238;-71
2022/11/10 06:19:34;;;;;;;4.70;2.20;;;4.90;99.90;;;;;;5091223;28;20208;-71
2022/11/10 06:21:59;;;;;;;4.00;2.47;;;4.90;99.90;;;;;;5091199;28;20189;-71
2022/11/10 06:24:25;;;;;;;5.63;2.50;;;4.90;99.90;;;;;;5082375;28;20176;-71
2022/11/10 06:26:50;;;;;;;5.33;2.90;;;4.90;99.90;;;;;;5091849;28;20181;-71
2022/11/10 06:29:16;;;;;;;5.23;3.27;;;4.90;99.90;;;;;;5088564;28;20181;-71
2022/11/10 06:31:41;;;;;;;2.97;1.97;;;4.90;99.90;;;;;;5088329;28;20633;-71
2022/11/10 06:34:07;;;;;;;5.77;2.93;;;4.90;99.90;;;;;;5094949;28;20204;-71
2022/11/10 06:36:33;;;;;;;4.43;2.53;;;4.90;99.90;;;;;;5094345;28;20201;-71
2022/11/10 06:38:58;;;;;;;5.40;2.60;;;5.00;99.90;;;;;;5063652;28;20498;-71
2022/11/10 06:41:24;;;;;;;11.43;4.57;;;4.90;99.90;;;;;;5095115;28;20662;-71
2022/11/10 06:43:50;;;;;;;5.43;2.63;;;4.90;99.90;;;;;;5080830;28;20628;-71
2022/11/10 06:46:15;;;;;;;5.20;2.60;;;4.90;99.90;;;;;;5095303;28;20189;-71
2022/11/10 06:48:41;;;;;;;6.77;3.60;;;4.90;99.90;;;;;;5094942;28;20237;-71
2022/11/10 06:51:06;;;;;;;9.13;3.40;;;4.90;99.90;;;;;;5095139;28;20208;-71
2022/11/10 06:53:32;;;;;;;4.23;2.60;;;4.90;99.90;;;;;;5089866;28;20602;-70
2022/11/10 06:55:58;;;;;;;4.60;2.27;;;5.00;99.90;;;;;;5090823;28;20182;-71
2022/11/10 06:58:23;;;;;;;6.70;3.57;;;5.10;99.90;;;;;;5093529;28;20560;-71
2022/11/10 07:00:49;;;;;;;4.07;2.50;;;5.10;99.90;;;;;;5093915;28;20879;-71
2022/11/10 07:03:15;;;;;;;8.67;2.83;;;5.20;99.90;;;;;;5093157;28;20184;-71
2022/11/10 07:05:41;;;;;;;3.80;2.27;;;5.20;99.90;;;;;;5090425;28;20188;-71
2022/11/10 07:08:15;;;;;;;4.30;1.83;;;5.30;99.90;;;;;;5089180;28;20450;-70
2022/11/10 07:10:49;;;;;;;5.40;3.20;;;5.40;99.90;;;;;;5093467;28;20450;-70
2022/11/10 07:13:15;;;;;;;5.10;2.50;;;5.50;99.90;;;;;;5075374;28;20435;-70
2022/11/10 07:15:41;;;;;;;6.40;3.33;;;5.60;99.90;;;;;;5081487;28;20513;-70
2022/11/10 07:18:07;;;;;;;7.47;2.80;;;5.70;99.90;;;;;;5094425;28;20656;-71
2022/11/10 07:20:34;;;;;;;7.90;3.10;;;5.80;99.90;;;;;;5084553;28;20653;-71
2022/11/10 07:23:01;;;;;;;5.13;2.90;;;5.90;99.90;;;;;;5094422;28;20926;-71
2022/11/10 07:25:29;;;;;;;3.03;1.90;;;5.90;99.90;;;;;;5084926;28;20419;-70
2022/11/10 07:27:59;;;;;;;5.90;2.73;;;6.00;99.90;;;;;;5078663;28;20704;-70
2022/11/10 07:30:26;;;;;;;5.43;2.37;;;6.00;99.90;;;;;;5096627;28;20434;-70
2022/11/10 07:33:01;;;;;;;3.93;2.37;;;6.10;99.90;;;;;;5095774;28;20906;-70
2022/11/10 07:35:27;;;;;;;4.57;2.67;;;6.20;99.90;;;;;;5096494;28;20478;-70
2022/11/10 07:38:05;;;;;;;5.73;3.60;;;6.30;99.90;;;;;;5095775;28;20450;-70
2022/11/10 07:40:31;;;;;;;6.13;3.10;;;6.40;99.90;;;;;;5090246;28;20415;-71
2022/11/10 07:42:57;;;;;;;4.93;2.10;;;6.50;99.90;;;;;;5075543;28;20434;-70
2022/11/10 07:45:22;;;;;;;8.50;3.20;;;6.50;99.90;;;;;;5092567;28;20648;-70
2022/11/10 07:47:49;;;;;;;4.70;2.23;;;6.60;99.90;;;;;;5094263;28;20191;-71
2022/11/10 07:50:15;;;;;;;4.03;1.90;;;6.70;99.90;;;;;;5094263;28;20187;-70
2022/11/10 07:52:41;;;;;;;4.30;2.10;;;6.80;99.90;;;;;;5094071;28;20902;-70
2022/11/10 07:55:07;;;;;;;8.67;2.83;;;6.80;99.90;;;;;;5087227;28;20468;-70
2022/11/10 07:57:33;;;;;;;5.63;3.10;;;6.90;99.90;;;;;;5084471;28;20201;-70
2022/11/10 07:59:59;;;;;;;3.97;2.00;;;7.00;99.90;;;;;;5092698;28;20460;-70
2022/11/10 08:02:25;;;;;;;7.30;3.30;;;7.10;99.90;;;;;;5093679;28;20410;-70
2022/11/10 08:04:51;;;;;;;8.80;4.00;;;7.30;99.90;;;;;;5093462;28;20180;-70
2022/11/10 08:07:16;;;;;;;6.10;3.50;;;7.50;99.90;;;;;;5093708;28;20929;-70
2022/11/10 08:09:42;;;;;;;13.93;3.33;;;7.70;99.90;;;;;;5093598;28;20193;-70
2022/11/10 08:12:07;;;;;;;8.23;2.40;;;8.00;99.90;;;;;;5093006;28;20214;-70
2022/11/10 08:14:33;;;;;;;6.57;2.10;;;8.20;99.90;;;;;;5093122;28;20180;-70
2022/11/10 08:16:59;;;;;;;4.10;2.70;;;8.30;99.90;;;;;;5093618;28;20262;-69
2022/11/10 08:19:24;;;;;;;5.23;2.27;;;8.50;99.90;;;;;;5091779;28;20698;-70
2022/11/10 08:21:50;;;;;;;3.03;1.87;;;8.80;99.90;;;;;;5085119;28;20180;-70
2022/11/10 08:24:15;;;;;;;2.90;1.77;;;9.10;99.90;;;;;;5093217;28;20619;-70
2022/11/10 08:26:41;;;;;;;7.63;1.30;;;9.40;99.90;;;;;;5093469;28;20180;-70
2022/11/10 08:29:06;;;;;;;5.30;1.40;;;9.60;99.90;;;;;;5093024;28;20624;-70
2022/11/10 08:31:33;;;;;;;2.00;1.33;;;9.70;99.90;;;;;;5093234;28;20656;-70
2022/11/10 08:33:58;;;;;;;3.10;1.20;;;9.70;99.90;;;;;;5093023;28;20652;-70
2022/11/10 08:36:24;;;;;;;2.90;1.30;;;9.80;99.90;;;;;;5092246;28;20454;-70
2022/11/10 08:38:50;;;;;;;2.07;1.07;;;9.80;99.90;;;;;;5093371;28;20181;-70
2022/11/10 08:41:15;;;;;;;2.27;1.27;;;9.80;99.90;;;;;;5093060;28;20172;-70
2022/11/10 08:43:41;;;;;;;1.40;0.77;;;9.70;99.90;;;;;;5091944;28;20176;-70
2022/11/10 08:46:07;;;;;;;4.67;1.40;;;9.70;99.90;;;;;;5084381;28;20648;-70
2022/11/10 08:48:32;;;;;;;4.20;1.73;;;9.70;99.90;;;;;;5092779;28;20184;-70
2022/11/10 08:50:59;;;;;;;4.60;1.57;;;9.60;99.90;;;;;;5092632;28;20188;-70
2022/11/10 08:53:25;;;;;;;2.10;0.93;;;9.60;99.90;;;;;;5088691;28;20179;-70
2022/11/10 08:55:52;;;;;;;2.50;1.40;;;9.50;99.90;;;;;;5087647;28;20423;-70
2022/11/10 08:58:22;;;;;;;2.97;1.17;;;9.60;99.90;;;;;;5092368;28;20182;-70
2022/11/10 09:00:50;;;;;;;2.87;1.20;;;9.50;99.90;;;;;;5070825;28;20418;-70
2022/11/10 09:03:17;;;;;;;3.03;0.90;;;9.70;99.90;;;;;;5089824;28;21298;-70
2022/11/10 09:05:44;;;;;;;3.10;1.00;;;9.70;99.90;;;;;;5091209;28;20425;-70
2022/11/10 09:08:10;;;;;;;1.33;0.73;;;9.70;99.90;;;;;;5090056;28;20430;-70
2022/11/10 09:10:38;;;;;;;4.03;0.90;;;9.80;99.90;;;;;;5090684;28;20416;-70
2022/11/10 09:13:05;;;;;;;3.90;1.20;;;9.70;99.90;;;;;;5090069;28;20422;-70
2022/11/10 09:15:32;;;;;;;3.30;1.40;;;9.80;99.90;;;;;;5080226;28;20466;-70
2022/11/10 09:17:59;;;;;;;4.83;1.00;;;9.80;99.90;;;;;;5081145;28;20545;-71
2022/11/10 09:20:26;;;;;;;2.33;1.10;;;9.80;99.90;;;;;;5090875;28;20955;-70
2022/11/10 09:22:52;;;;;;;2.80;1.13;;;9.80;99.90;;;;;;5090624;28;20453;-70
2022/11/10 09:25:17;;;;;;;2.30;1.10;;;9.80;99.90;;;;;;5090461;28;20454;-71
2022/11/10 09:27:44;;;;;;;1.57;0.90;;;9.90;99.90;;;;;;5090935;28;20199;-70
2022/11/10 09:30:10;;;;;;;5.53;1.50;;;9.90;99.90;;;;;;5090287;28;20684;-70
2022/11/10 09:32:36;;;;;;;1.70;0.87;;;10.00;99.90;;;;;;5090391;28;20418;-70
2022/11/10 09:35:02;;;;;;;1.80;0.90;;;10.00;99.90;;;;;;5090074;28;20926;-70
2022/11/10 09:37:27;;;;;;;3.40;1.10;;;10.10;99.90;;;;;;5081689;28;20192;-70
2022/11/10 09:39:53;;;;;;;2.33;0.90;;;10.20;99.90;;;;;;5090464;28;20924;-70
2022/11/10 09:42:31;;;;;;;1.70;1.00;;;10.30;99.90;;;;;;5090313;28;20176;-70
2022/11/10 09:45:03;;;;;;;1.87;0.97;;;10.40;99.90;;;;;;5090098;28;20445;-70
2022/11/10 09:48:00;;;;;;;4.33;1.10;;;10.50;99.90;;;;;;5090398;28;20891;-69
2022/11/10 09:50:46;;;;;;;5.13;0.97;;;10.60;99.90;;;;;;5077940;28;20422;-70
2022/11/10 09:53:22;;;;;;;1.70;0.70;;;10.80;99.90;;;;;;5084947;28;20891;-70
2022/11/10 09:56:06;;;;;;;7.70;1.50;;;10.90;99.90;;;;;;5085146;28;20414;-70
2022/11/10 09:58:43;;;;;;;2.10;0.80;;;11.10;99.90;;;;;;5077202;28;20409;-70
2022/11/10 10:01:44;;;;;;;1.20;0.50;;;11.20;99.90;;;;;;5090525;28;20405;-70
2022/11/10 10:04:19;;;;;;;3.43;1.37;;;11.40;99.90;;;;;;5090511;28;20768;-70
2022/11/10 10:07:01;;;;;;;5.10;1.23;;;11.60;99.90;;;;;;5077833;28;20460;-70
2022/11/10 10:09:29;;;;;;;1.60;0.80;;;11.70;99.90;;;;;;5090721;28;20414;-70
2022/11/10 10:12:07;;;;;;;2.13;1.10;;;11.90;99.90;;;;;;5079513;28;20419;-70
2022/11/10 10:14:32;;;;;;;3.30;1.00;;;12.00;99.90;;;;;;5087118;28;20449;-70
2022/11/10 10:17:23;;;;;;;1.40;0.60;;;12.20;99.90;;;;;;5089578;28;20485;-70
2022/11/10 10:20:19;;;;;;;1.60;0.67;;;12.30;99.90;;;;;;5074258;28;20183;-70
2022/11/10 10:23:09;;;;;;;4.80;0.80;;;12.30;99.90;;;;;;5089565;28;20425;-70
2022/11/10 10:25:38;;;;;;;1.97;0.77;;;12.40;99.90;;;;;;5083189;28;20414;-71
2022/11/10 10:28:32;;;;;;;1.60;0.70;;;12.50;99.90;;;;;;5089827;28;20595;-70
2022/11/10 10:31:20;;;;;;;2.97;0.73;;;12.60;99.90;;;;;;5090081;28;20413;-71
2022/11/10 10:33:47;;;;;;;4.07;0.60;;;12.70;99.90;;;;;;5089416;28;20438;-72
2022/11/10 10:36:21;;;;;;;2.33;0.80;;;12.70;99.90;;;;;;5088935;28;20465;-71
2022/11/10 10:38:50;;;;;;;2.40;0.77;;;12.70;99.90;;;;;;5090226;28;20413;-71
2022/11/10 10:41:27;;;;;;;1.50;0.80;;;12.70;99.90;;;;;;5089866;28;20456;-71
2022/11/10 10:43:56;;;;;;;1.43;0.60;;;12.90;99.90;;;;;;5089700;28;20501;-71
2022/11/10 10:46:27;;;;;;;5.30;0.90;;;13.10;99.90;;;;;;5091053;28;20418;-70
2022/11/10 10:49:19;;;;;;;5.10;1.10;;;13.20;99.90;;;;;;5091483;28;20410;-71
2022/11/10 10:51:45;;;;;;;1.30;0.60;;;13.30;99.90;;;;;;5091219;28;20406;-71
2022/11/10 10:54:31;;;;;;;2.13;0.80;;;13.30;99.90;;;;;;5082728;28;20469;-71
2022/11/10 10:57:19;;;;;;;2.43;0.67;;;13.50;99.90;;;;;;5078735;28;20250;-71
2022/11/10 10:59:45;;;;;;;2.67;1.07;;;13.60;99.90;;;;;;5090750;28;20410;-71
2022/11/10 11:02:31;;;;;;;6.13;1.07;;;13.60;99.90;;;;;;5091241;28;20437;-71
2022/11/10 11:05:17;;;;;;;6.30;0.83;;;13.70;99.90;;;;;;5091101;28;20430;-71
2022/11/10 11:08:00;;;;;;;1.97;0.70;;;13.80;99.90;;;;;;5091170;28;20422;-71
2022/11/10 11:10:29;;;;;;;3.50;1.27;;;13.70;99.90;;;;;;5073103;28;20441;-68
2022/11/10 11:13:13;;;;;;;2.80;1.00;;;13.70;99.90;;;;;;5089945;28;20422;-68
2022/11/10 11:15:38;;;;;;;1.30;0.60;;;13.80;99.90;;;;;;5078811;28;20435;-71
2022/11/10 11:18:15;;;;;;;9.97;1.03;;;13.80;99.90;;;;;;5086047;28;20969;-71
2022/11/10 11:21:17;;;;;;;1.90;0.80;;;13.80;99.90;;;;;;5093845;28;20180;-70
2022/11/10 11:24:16;;;;;;;3.00;1.47;;;13.80;99.90;;;;;;5090110;28;20416;-71
2022/11/10 11:26:56;;;;;;;4.67;1.13;;;13.90;99.90;;;;;;5090768;28;20418;-68
2022/11/10 11:29:30;;;;;;;2.83;0.80;;;14.10;99.90;;;;;;5092785;28;20866;-70
2022/11/10 11:32:18;;;;;;;1.40;0.60;;;14.00;99.90;;;;;;5092600;28;20421;-70
2022/11/10 11:34:58;;;;;;;2.40;0.67;;;14.00;99.90;;;;;;5090515;28;20442;-70
2022/11/10 11:37:49;;;;;;;3.00;1.10;;;14.10;99.90;;;;;;5089309;28;21219;-71
2022/11/10 11:40:36;;;;;;;3.37;1.03;;;14.10;99.90;;;;;;5091909;28;20415;-70
2022/11/10 11:43:08;;;;;;;6.23;1.10;;;14.20;99.90;;;;;;5091765;28;20457;-70
2022/11/10 11:45:39;;;;;;;2.13;0.87;;;14.00;99.90;;;;;;5093264;28;20411;-71
2022/11/10 11:48:47;;;;;;;8.07;1.00;;;14.20;99.90;;;;;;5090778;28;21023;-71
2022/11/10 11:51:50;;;;;;;2.03;1.00;;;14.30;99.90;;;;;;5090213;28;20915;-71
2022/11/10 11:54:21;;;;;;;1.70;0.60;;;14.30;99.90;;;;;;5087951;28;20449;-71
2022/11/10 11:56:50;;;;;;;3.80;0.83;;;14.30;99.90;;;;;;5091675;28;20465;-71
2022/11/10 11:59:27;;;;;;;1.50;0.73;;;14.30;99.90;;;;;;5092275;28;21058;-68
2022/11/10 12:02:22;;;;;;;1.77;0.70;;;14.40;99.90;;;;;;5090491;28;20489;-69
2022/11/10 12:05:27;;;;;;;7.60;0.80;;;14.30;99.90;;;;;;5090211;28;20446;-68
2022/11/10 12:08:18;;;;;;;2.87;0.70;;;14.30;99.90;;;;;;5090621;28;20930;-68
2022/11/10 12:11:04;;;;;;;2.43;0.70;;;14.30;99.90;;;;;;5092214;28;20418;-69
2022/11/10 12:13:36;;;;;;;1.30;0.60;;;14.20;99.40;;;;;;5090415;28;20417;-69
2022/11/10 12:16:14;;;;;;;1.43;0.67;;;14.20;99.40;;;;;;5090310;28;20410;-69
2022/11/10 12:19:07;;;;;;;3.73;0.80;;;14.00;99.70;;;;;;5090010;28;20410;-68
2022/11/10 12:21:38;;;;;;;1.50;0.60;;;13.90;99.90;;;;;;5088577;28;20406;-68
2022/11/10 12:24:13;;;;;;;1.57;0.67;;;13.90;99.90;;;;;;5090292;28;20407;-69
2022/11/10 12:26:57;;;;;;;1.87;0.70;;;13.70;99.90;;;;;;5089039;28;20499;-69
2022/11/10 12:29:34;;;;;;;2.70;1.00;;;13.70;99.90;;;;;;5089979;28;20460;-69
2022/11/10 12:32:14;;;;;;;2.60;0.90;;;13.80;99.90;;;;;;5089141;28;20414;-70
2022/11/10 12:35:05;;;;;;;1.70;0.80;;;13.80;99.90;;;;;;5092690;28;20458;-70
2022/11/10 12:37:37;;;;;;;1.40;0.60;;;13.80;99.90;;;;;;5060430;28;20528;-70
2022/11/10 12:40:21;;;;;;;4.20;1.20;;;14.00;99.90;;;;;;5087104;28;20426;-70
2022/11/10 12:43:02;;;;;;;2.50;0.93;;;13.90;99.90;;;;;;5092282;28;20769;-70
2022/11/10 12:45:51;;;;;;;2.43;1.00;;;13.80;99.90;;;;;;5086986;28;20561;-70
2022/11/10 12:48:18;;;;;;;1.70;0.83;;;14.00;99.90;;;;;;5075076;28;20899;-70
2022/11/10 12:51:01;;;;;;;1.60;0.73;;;13.90;99.90;;;;;;5074718;28;20465;-70
2022/11/10 12:53:31;;;;;;;1.50;0.63;;;13.80;99.90;;;;;;5099698;22;20524;-69
2022/11/10 12:56:01;;;;;;;2.33;0.87;;;13.80;99.90;;;;;;5058664;28;20657;-70
2022/11/10 12:58:27;;;;;;;1.50;0.70;;;13.80;99.90;;;;;;5038501;28;20448;-70
2022/11/10 13:01:03;;;;;;;18.07;1.40;;;13.70;99.90;;;;;;5052230;28;20435;-70
2022/11/10 13:03:33;;;;;;;1.20;0.50;;;13.70;99.30;;;;;;5043043;28;20432;-69
2022/11/10 13:06:22;;;;;;;2.90;0.90;;;13.80;99.50;;;;;;5045706;28;20428;-70
2022/11/10 13:08:49;;;;;;;2.27;0.93;;;13.80;99.80;;;;;;5043612;28;20420;-70
2022/11/10 13:11:14;;;;;;;4.80;1.17;;;13.80;99.90;;;;;;5033666;28;20436;-70
2022/11/10 13:14:02;;;;;;;2.70;0.83;;;13.90;99.90;;;;;;5042613;28;20420;-70
2022/11/10 13:16:37;;;;;;;1.50;0.70;;;13.90;99.90;;;;;;5032890;28;20205;-70
2022/11/10 13:19:04;;;;;;;1.30;0.50;;;13.80;99.90;;;;;;5051579;28;21083;-70
2022/11/10 13:21:51;;;;;;;2.17;0.67;;;13.80;98.00;;;;;;5040307;28;21097;-70